KISQ

Details ICAO KISQ
Name SCHOOLCRAFT CO
Region United States
Timezone America/Detroit (UTC-5.0)
Plans Departing 0
Arriving 0
Stats Elevation 685 ft / 209 m (AMSL)
Location 45.974481° -86.171523°
Runways 2
Magnetic Variation 5.903° W
Sunrise 2017-12-17 13:22:42 UTC / 2017-12-17 08:22:42 Local
Sunset 2017-12-17 22:01:52 UTC / 2017-12-17 17:01:52 Local
Advertisement - Login to hide

Runways

ID Width Length Bearing (true) Bearing (mag) Surface Threshold Offset Overrun Length
10 100 ft / 30 m 4,986 ft / 1,520 m 90.10° 96.00° Asphalt 0 ft / 0 m 0 ft / 0 m
18 50 ft / 15 m 2,502 ft / 763 m 179.11° 185.01° Asphalt 0 ft / 0 m 0 ft / 0 m
28 100 ft / 30 m 4,986 ft / 1,520 m 270.11° 276.01° Asphalt 0 ft / 0 m 0 ft / 0 m
36 50 ft / 15 m 2,502 ft / 763 m 359.11° 5.01° Asphalt 0 ft / 0 m 0 ft / 0 m

Map

Weather


0- 5 10 15 20 25 30 35+ Temperature / ° C

Clouds and Precipitation
Forecast for 2017-12-18 00:00 UTC. Updated 10 minutes ago

Ground ~20,000 ft ~40,000 ft Winds

METAR

KISQ 172335Z AUTO 13008KT 10SM OVC009 M01/M04 A3000 RMK AO2 T10151043

TAF

Not found

Frequencies

Unicom 122.80 MHz CTAF/UNICOM
Warning: Do not use this data for real-world aviation or navigation. No guarantee of current accuracy is given.